LEMG/AGP METAR and TAF weather

Enter ICAO airport designator
Station Type Date Time Source
LEMG METAR 2020/11/27 03:00 UTC NOAA

LEMG 270300Z 30007KT 9999 BKN070 11/10 Q1006 NOSIG


Station Type Date Time Source
LEMG Decoded METAR 2020/11/27 03:00 UTC NOAA

Malaga / Aeropuerto, Spain (LEMG) 36-40N 004-29W 7M
Nov 26, 2020 - 10:00 PM EST / 2020.11.27 0300 UTC
Wind: from the WNW (300 degrees) at 8 MPH (7 KT):0
Visibility: greater than 7 mile(s):0
Sky conditions: mostly cloudy
Temperature: 51 F (11 C)
Dew Point: 50 F (10 C)
Relative Humidity: 93%
Pressure (altimeter): 29.71 in. Hg (1006 hPa)
ob: LEMG 270300Z 30007KT 9999 BKN070 11/10 Q1006 NOSIG
cycle: 3

Station Type Date Time Source
LEMG TAF 2020/11/26 19:54 UTC NOAA

TAF
AMD LEMG 261942Z 2619/2718 30007KT 9999 SCT040 SCT060 TX18/2713Z TN10/2706Z PROB40
TEMPO 2619/2624 09008KT 4000 SHRA TS BKN020 FEW030CB

Example: see airport list